Time;durP1;ratioP1;P1;durP2;ratioP2;P2;SDS_P1;SDS_P2;PMS_P1;PMS_P2;Temp;Humidity;BMP_temperature;BMP_pressure;BME280_temperature;BME280_humidity;BME280_pressure;Samples;Min_cycle;Max_cycle;Signal;HPM_P1;HPM_P2
2023/04/26 00:01:57;;;;;;;6.55;2.75;;;;;;;;;;5082123;28;20182;-86
2023/04/26 00:04:23;;;;;;;6.32;2.55;;;;;;;;;;5080750;28;20204;-86
2023/04/26 00:06:49;;;;;;;14.98;3.47;;;;;;;;;;5080134;28;20169;-86
2023/04/26 00:09:18;;;;;;;10.48;2.90;;;;;;;;;;5080213;28;20184;-86
2023/04/26 00:11:44;;;;;;;5.22;2.60;;;;;;;;;;5063548;28;20176;-85
2023/04/26 00:14:10;;;;;;;10.20;2.90;;;;;;;;;;5080183;28;20527;-86
2023/04/26 00:16:36;;;;;;;7.20;3.42;;;;;;;;;;5063261;28;20180;-84
2023/04/26 00:19:03;;;;;;;6.60;3.00;;;;;;;;;;5079318;28;20188;-86
2023/04/26 00:21:29;;;;;;;5.28;2.80;;;;;;;;;;5097970;28;20171;-85
2023/04/26 00:23:55;;;;;;;13.52;4.72;;;;;;;;;;5079624;28;20203;-86
2023/04/26 00:26:21;;;;;;;9.90;3.10;;;;;;;;;;5097923;28;20202;-86
2023/04/26 00:28:47;;;;;;;10.90;3.35;;;;;;;;;;5079297;28;20183;-85
2023/04/26 00:31:14;;;;;;;8.52;3.72;;;;;;;;;;5079384;28;20266;-86
2023/04/26 00:33:40;;;;;;;9.32;2.97;;;;;;;;;;5079396;28;20271;-85
2023/04/26 00:36:06;;;;;;;8.20;2.65;;;;;;;;;;5079512;28;20207;-85
2023/04/26 00:38:32;;;;;;;6.00;2.70;;;;;;;;;;5097506;28;20182;-85
2023/04/26 00:40:58;;;;;;;4.43;2.90;;;;;;;;;;5062544;28;20192;-86
2023/04/26 00:43:24;;;;;;;5.28;2.63;;;;;;;;;;5079364;28;20219;-86
2023/04/26 00:45:52;;;;;;;5.20;2.33;;;;;;;;;;5097090;28;20272;-85
2023/04/26 00:48:18;;;;;;;6.90;3.13;;;;;;;;;;5062276;28;20206;-85
2023/04/26 00:50:46;;;;;;;7.00;3.55;;;;;;;;;;5061809;28;20268;-85
2023/04/26 00:53:13;;;;;;;5.20;3.95;;;;;;;;;;5097333;28;20566;-85
2023/04/26 00:55:40;;;;;;;4.90;2.70;;;;;;;;;;5096466;28;20176;-83
2023/04/26 00:58:06;;;;;;;8.15;3.45;;;;;;;;;;5078962;28;20626;-85
2023/04/26 01:00:32;;;;;;;11.45;3.60;;;;;;;;;;5079028;28;20527;-85
2023/04/26 01:02:59;;;;;;;8.23;2.92;;;;;;;;;;5097157;28;20728;-85
2023/04/26 01:05:25;;;;;;;5.75;4.00;;;;;;;;;;5079695;28;20181;-85
2023/04/26 01:07:52;;;;;;;7.53;4.22;;;;;;;;;;5078287;28;20172;-85
2023/04/26 01:10:18;;;;;;;7.75;3.55;;;;;;;;;;5078588;28;20783;-85
2023/04/26 01:12:44;;;;;;;10.45;3.90;;;;;;;;;;5078498;28;20545;-85
2023/04/26 01:15:10;;;;;;;5.82;3.35;;;;;;;;;;5096461;28;20662;-85
2023/04/26 01:17:37;;;;;;;5.72;3.25;;;;;;;;;;5097168;28;20556;-85
2023/04/26 01:20:03;;;;;;;12.05;4.38;;;;;;;;;;5078302;28;20500;-85
2023/04/26 01:22:33;;;;;;;9.52;3.55;;;;;;;;;;5078856;28;20180;-86
2023/04/26 01:24:59;;;;;;;7.40;3.90;;;;;;;;;;5096301;28;20178;-85
2023/04/26 01:27:25;;;;;;;9.80;3.88;;;;;;;;;;5078217;28;20180;-85
2023/04/26 01:29:51;;;;;;;6.88;5.40;;;;;;;;;;5078463;28;20179;-85
2023/04/26 01:32:17;;;;;;;6.65;3.72;;;;;;;;;;5078424;28;20195;-85
2023/04/26 01:34:43;;;;;;;9.93;4.38;;;;;;;;;;5096388;28;20171;-85
2023/04/26 01:37:10;;;;;;;6.63;4.20;;;;;;;;;;5061427;28;20188;-85
2023/04/26 01:39:36;;;;;;;10.63;4.57;;;;;;;;;;5077838;28;20179;-85
2023/04/26 01:42:03;;;;;;;6.53;3.75;;;;;;;;;;5096078;28;20200;-85
2023/04/26 01:44:29;;;;;;;7.10;4.20;;;;;;;;;;5077555;28;20207;-85
2023/04/26 01:46:55;;;;;;;7.20;4.35;;;;;;;;;;5077573;28;20187;-85
2023/04/26 01:49:22;;;;;;;9.80;3.95;;;;;;;;;;5077664;28;20329;-85
2023/04/26 01:51:48;;;;;;;10.43;4.80;;;;;;;;;;5077826;28;20164;-84
2023/04/26 01:54:14;;;;;;;11.88;4.45;;;;;;;;;;5079069;28;20179;-86
2023/04/26 01:56:41;;;;;;;13.52;4.18;;;;;;;;;;5061043;28;20691;-85
2023/04/26 01:59:06;;;;;;;7.35;4.88;;;;;;;;;;5095671;28;20261;-85
2023/04/26 02:01:32;;;;;;;7.70;4.20;;;;;;;;;;5061255;28;20212;-85
2023/04/26 02:03:58;;;;;;;8.73;4.68;;;;;;;;;;5095158;28;20979;-85
2023/04/26 02:06:25;;;;;;;8.30;4.87;;;;;;;;;;5077681;28;20323;-85
2023/04/26 02:08:52;;;;;;;9.43;4.20;;;;;;;;;;5077186;28;20408;-85
2023/04/26 02:11:18;;;;;;;10.10;4.80;;;;;;;;;;5060913;28;20645;-85
2023/04/26 02:13:44;;;;;;;14.30;5.05;;;;;;;;;;5077255;28;20534;-83
2023/04/26 02:16:10;;;;;;;7.82;5.00;;;;;;;;;;5061119;28;20195;-85
2023/04/26 02:18:36;;;;;;;10.60;5.15;;;;;;;;;;5060922;28;20488;-85
2023/04/26 02:21:02;;;;;;;6.33;4.20;;;;;;;;;;5076846;28;20180;-85
2023/04/26 02:23:28;;;;;;;10.88;5.20;;;;;;;;;;5060683;28;20521;-85
2023/04/26 02:25:54;;;;;;;8.40;5.70;;;;;;;;;;5060395;28;20268;-84
2023/04/26 02:28:20;;;;;;;8.18;4.93;;;;;;;;;;5077352;28;20406;-84
2023/04/26 02:30:46;;;;;;;7.78;4.95;;;;;;;;;;5094923;28;20716;-84
2023/04/26 02:33:12;;;;;;;8.98;5.28;;;;;;;;;;5076819;28;20182;-85
2023/04/26 02:35:38;;;;;;;11.43;5.60;;;;;;;;;;5077792;28;20594;-85
2023/04/26 02:38:04;;;;;;;12.73;5.70;;;;;;;;;;5063538;28;20214;-84
2023/04/26 02:40:30;;;;;;;11.23;5.32;;;;;;;;;;5077752;28;20753;-85
2023/04/26 02:42:56;;;;;;;14.18;5.40;;;;;;;;;;5077027;28;20233;-84
2023/04/26 02:45:22;;;;;;;14.32;5.68;;;;;;;;;;5077627;28;20183;-85
2023/04/26 02:47:48;;;;;;;11.65;5.50;;;;;;;;;;5077132;28;20285;-83
2023/04/26 02:50:14;;;;;;;12.00;6.73;;;;;;;;;;5060616;28;20244;-84
2023/04/26 02:52:40;;;;;;;8.75;5.82;;;;;;;;;;5077003;28;20464;-85
2023/04/26 02:55:06;;;;;;;9.70;5.60;;;;;;;;;;5077205;28;20180;-84
2023/04/26 02:57:32;;;;;;;11.93;5.25;;;;;;;;;;5060899;28;20193;-84
2023/04/26 02:59:59;;;;;;;12.00;5.78;;;;;;;;;;5077090;28;20320;-84
2023/04/26 03:02:25;;;;;;;6.78;5.43;;;;;;;;;;5060214;28;20184;-84
2023/04/26 03:04:51;;;;;;;9.32;5.45;;;;;;;;;;5095059;28;20172;-84
2023/04/26 03:07:17;;;;;;;10.45;5.32;;;;;;;;;;5077935;28;20263;-84
2023/04/26 03:09:43;;;;;;;9.13;5.80;;;;;;;;;;5081412;28;20180;-84
2023/04/26 03:12:10;;;;;;;9.47;6.30;;;;;;;;;;5097460;28;20172;-84
2023/04/26 03:14:35;;;;;;;9.48;5.55;;;;;;;;;;5095559;28;20496;-84
2023/04/26 03:17:02;;;;;;;10.35;5.22;;;;;;;;;;5060374;28;20199;-85
2023/04/26 03:19:28;;;;;;;8.95;5.85;;;;;;;;;;5076848;28;20170;-84
2023/04/26 03:21:54;;;;;;;13.80;6.30;;;;;;;;;;5094388;28;20639;-85
2023/04/26 03:24:20;;;;;;;9.68;5.65;;;;;;;;;;5094657;28;20202;-84
2023/04/26 03:26:46;;;;;;;8.23;6.13;;;;;;;;;;5076370;28;20650;-84
2023/04/26 03:29:12;;;;;;;10.55;7.05;;;;;;;;;;5076284;28;20174;-84
2023/04/26 03:31:38;;;;;;;13.55;6.10;;;;;;;;;;5079775;28;20184;-84
2023/04/26 03:34:05;;;;;;;9.27;5.28;;;;;;;;;;5063608;28;20626;-84
2023/04/26 03:36:31;;;;;;;15.00;7.75;;;;;;;;;;5098811;28;20182;-84
2023/04/26 03:38:57;;;;;;;8.60;6.13;;;;;;;;;;5080223;28;20227;-83
2023/04/26 03:41:24;;;;;;;12.90;6.75;;;;;;;;;;5080894;28;20204;-84
2023/04/26 03:43:50;;;;;;;12.38;6.90;;;;;;;;;;5080217;28;20226;-83
2023/04/26 03:46:16;;;;;;;9.75;6.57;;;;;;;;;;5098952;28;20176;-84
2023/04/26 03:48:42;;;;;;;10.15;6.35;;;;;;;;;;5065171;28;20194;-84
2023/04/26 03:51:08;;;;;;;10.23;6.50;;;;;;;;;;5081335;28;20232;-84
2023/04/26 03:53:34;;;;;;;12.77;7.63;;;;;;;;;;5064611;28;20643;-84
2023/04/26 03:56:00;;;;;;;9.32;6.72;;;;;;;;;;5072440;28;20440;-84
2023/04/26 03:58:26;;;;;;;16.90;7.22;;;;;;;;;;5064776;28;20176;-85
2023/04/26 04:00:52;;;;;;;14.65;7.03;;;;;;;;;;5080718;28;20179;-84
2023/04/26 04:03:19;;;;;;;10.93;7.82;;;;;;;;;;5080080;28;20270;-85
2023/04/26 04:05:45;;;;;;;9.23;5.80;;;;;;;;;;5098115;28;20168;-85
2023/04/26 04:08:11;;;;;;;13.45;6.63;;;;;;;;;;5063401;28;20178;-85
2023/04/26 04:10:37;;;;;;;14.67;7.43;;;;;;;;;;5081575;28;20175;-85
2023/04/26 04:13:03;;;;;;;11.10;6.90;;;;;;;;;;5070122;28;20415;-85
2023/04/26 04:15:29;;;;;;;20.42;6.97;;;;;;;;;;5093396;28;20456;-85
2023/04/26 04:17:55;;;;;;;12.07;7.15;;;;;;;;;;5097733;28;20176;-85
2023/04/26 04:20:21;;;;;;;12.48;6.75;;;;;;;;;;5070471;28;20180;-84
2023/04/26 04:22:47;;;;;;;14.07;6.80;;;;;;;;;;5100124;28;20199;-84
2023/04/26 04:25:13;;;;;;;11.57;7.23;;;;;;;;;;5078127;28;20213;-84
2023/04/26 04:27:41;;;;;;;11.83;7.10;;;;;;;;;;5060193;28;20929;-85
2023/04/26 04:30:07;;;;;;;12.57;6.25;;;;;;;;;;5042746;28;20911;-85
2023/04/26 04:32:34;;;;;;;12.43;6.22;;;;;;;;;;5059470;28;20271;-84
2023/04/26 04:35:00;;;;;;;13.65;7.68;;;;;;;;;;5077225;28;20257;-84
2023/04/26 04:37:26;;;;;;;19.35;7.63;;;;;;;;;;5042915;28;20176;-84
2023/04/26 04:39:52;;;;;;;13.80;8.15;;;;;;;;;;5077495;28;20331;-84
2023/04/26 04:42:18;;;;;;;10.85;7.80;;;;;;;;;;5042279;28;20181;-84
2023/04/26 04:44:45;;;;;;;14.70;7.77;;;;;;;;;;5077424;28;20181;-84
2023/04/26 04:47:11;;;;;;;10.60;7.03;;;;;;;;;;5077030;28;20422;-84
2023/04/26 04:49:37;;;;;;;13.32;7.10;;;;;;;;;;5076976;28;20310;-84
2023/04/26 04:52:04;;;;;;;13.50;7.28;;;;;;;;;;5076706;28;20176;-85
2023/04/26 04:54:30;;;;;;;16.70;8.30;;;;;;;;;;5077367;28;20187;-85
2023/04/26 04:56:56;;;;;;;17.47;8.63;;;;;;;;;;5077257;28;20208;-85
2023/04/26 04:59:22;;;;;;;15.25;9.38;;;;;;;;;;5077112;28;20406;-85
2023/04/26 05:01:49;;;;;;;20.60;8.45;;;;;;;;;;5077229;28;20181;-85
2023/04/26 05:04:15;;;;;;;21.58;9.07;;;;;;;;;;5044570;28;20262;-85
2023/04/26 05:06:41;;;;;;;14.55;8.10;;;;;;;;;;5077429;28;20180;-85
2023/04/26 05:09:08;;;;;;;20.42;9.95;;;;;;;;;;5042495;28;20177;-85
2023/04/26 05:11:34;;;;;;;23.05;9.43;;;;;;;;;;5077303;28;20178;-85
2023/04/26 05:14:00;;;;;;;21.38;7.72;;;;;;;;;;5076941;28;20177;-85
2023/04/26 05:16:26;;;;;;;16.35;10.45;;;;;;;;;;5059438;28;20178;-85
2023/04/26 05:18:52;;;;;;;13.50;8.25;;;;;;;;;;5076446;28;20530;-85
2023/04/26 05:21:18;;;;;;;15.20;9.10;;;;;;;;;;5076411;28;20303;-85
2023/04/26 05:23:44;;;;;;;13.60;7.72;;;;;;;;;;5058810;28;20236;-85
2023/04/26 05:26:13;;;;;;;16.37;9.07;;;;;;;;;;5058806;28;20181;-85
2023/04/26 05:28:39;;;;;;;21.63;9.80;;;;;;;;;;5059055;28;20521;-85
2023/04/26 05:31:05;;;;;;;23.95;9.32;;;;;;;;;;5059158;28;20515;-85
2023/04/26 05:33:31;;;;;;;22.57;10.73;;;;;;;;;;5042246;28;20198;-85
2023/04/26 05:35:57;;;;;;;18.70;10.50;;;;;;;;;;5059172;28;20427;-84
2023/04/26 05:38:23;;;;;;;19.45;9.43;;;;;;;;;;5077837;28;20414;-82
2023/04/26 05:40:50;;;;;;;16.45;9.55;;;;;;;;;;5076979;28;20233;-82
2023/04/26 05:43:16;;;;;;;16.25;9.75;;;;;;;;;;5041769;28;20243;-83
2023/04/26 05:45:57;;;;;;;17.73;10.73;;;;;;;;;;5077069;28;20176;-82
2023/04/26 05:48:23;;;;;;;17.58;10.20;;;;;;;;;;5059051;28;20170;-82
2023/04/26 05:50:50;;;;;;;14.15;9.35;;;;;;;;;;5058167;28;20236;-81
2023/04/26 05:53:16;;;;;;;26.85;11.98;;;;;;;;;;5058085;28;20226;-82
2023/04/26 05:55:43;;;;;;;17.55;10.10;;;;;;;;;;5058001;28;20636;-82
2023/04/26 05:58:09;;;;;;;19.20;10.13;;;;;;;;;;5058552;28;20183;-82
2023/04/26 06:00:36;;;;;;;22.60;10.60;;;;;;;;;;5058915;28;20179;-82
2023/04/26 06:03:02;;;;;;;21.95;10.90;;;;;;;;;;5076703;28;20270;-82
2023/04/26 06:05:28;;;;;;;23.90;11.38;;;;;;;;;;5058259;28;20687;-82
2023/04/26 06:07:54;;;;;;;31.30;12.80;;;;;;;;;;5058420;28;20173;-82
2023/04/26 06:10:20;;;;;;;22.13;11.23;;;;;;;;;;5057645;28;20753;-82
2023/04/26 06:12:46;;;;;;;27.95;12.73;;;;;;;;;;5041787;28;20177;-81
2023/04/26 06:15:13;;;;;;;26.90;10.95;;;;;;;;;;5076514;28;20184;-82
2023/04/26 06:17:40;;;;;;;27.08;12.98;;;;;;;;;;5059178;28;20171;-83
2023/04/26 06:20:08;;;;;;;39.30;13.35;;;;;;;;;;5058330;28;20241;-83
2023/04/26 06:22:34;;;;;;;29.90;13.10;;;;;;;;;;5076092;28;20176;-82
2023/04/26 06:25:00;;;;;;;31.10;14.20;;;;;;;;;;5041580;28;20197;-82
2023/04/26 06:27:26;;;;;;;27.48;13.35;;;;;;;;;;5041840;28;20263;-81
2023/04/26 06:29:52;;;;;;;27.88;12.75;;;;;;;;;;5057348;28;20200;-81
2023/04/26 06:32:18;;;;;;;26.67;11.83;;;;;;;;;;5057403;28;20230;-81
2023/04/26 06:34:44;;;;;;;28.07;13.07;;;;;;;;;;5041265;28;20421;-81
2023/04/26 06:37:11;;;;;;;24.95;12.90;;;;;;;;;;5041280;28;20922;-81
2023/04/26 06:39:37;;;;;;;28.23;14.48;;;;;;;;;;5076272;28;20208;-81
2023/04/26 06:42:03;;;;;;;24.48;12.10;;;;;;;;;;5057832;28;20188;-81
2023/04/26 06:44:30;;;;;;;27.33;12.77;;;;;;;;;;5075465;28;20204;-81
2023/04/26 06:46:56;;;;;;;23.67;12.13;;;;;;;;;;5057697;28;20195;-82
2023/04/26 06:49:22;;;;;;;27.13;11.82;;;;;;;;;;5041000;28;20230;-81
2023/04/26 06:51:49;;;;;;;18.58;11.98;;;;;;;;;;5075658;28;20243;-81
2023/04/26 06:54:15;;;;;;;20.83;10.60;;;;;;;;;;5057609;28;20282;-81
2023/04/26 06:56:41;;;;;;;19.35;10.35;;;;;;;;;;5075624;28;20519;-81
2023/04/26 06:59:07;;;;;;;21.73;11.45;;;;;;;;;;5057019;28;20536;-81
2023/04/26 07:01:33;;;;;;;20.60;11.23;;;;;;;;;;5056815;28;20183;-81
2023/04/26 07:04:03;;;;;;;24.15;11.63;;;;;;;;;;5040380;28;20334;-81
2023/04/26 07:06:30;;;;;;;14.63;8.43;;;;;;;;;;5061251;28;20225;-81
2023/04/26 07:08:57;;;;;;;16.27;10.18;;;;;;;;;;5065932;28;20174;-81
2023/04/26 07:11:23;;;;;;;21.67;10.18;;;;;;;;;;5065393;28;20167;-80
2023/04/26 07:13:49;;;;;;;22.80;10.87;;;;;;;;;;5065055;28;20632;-81
2023/04/26 07:16:15;;;;;;;17.88;10.48;;;;;;;;;;5051084;28;20827;-81
2023/04/26 07:18:41;;;;;;;20.77;9.98;;;;;;;;;;5065495;28;20173;-81
2023/04/26 07:21:07;;;;;;;23.97;8.90;;;;;;;;;;5074807;28;20172;-81
2023/04/26 07:23:33;;;;;;;20.90;9.48;;;;;;;;;;5040686;28;20603;-81
2023/04/26 07:26:03;;;;;;;17.67;7.70;;;;;;;;;;5075316;28;20231;-81
2023/04/26 07:28:29;;;;;;;14.45;6.82;;;;;;;;;;5041187;28;20204;-80
2023/04/26 07:30:55;;;;;;;12.00;7.35;;;;;;;;;;5074957;28;20226;-81
2023/04/26 07:33:21;;;;;;;12.00;7.28;;;;;;;;;;5056775;28;20188;-81
2023/04/26 07:35:57;;;;;;;11.73;6.83;;;;;;;;;;5057063;28;20188;-81
2023/04/26 07:38:23;;;;;;;18.17;6.80;;;;;;;;;;5057731;28;20750;-81
2023/04/26 07:40:50;;;;;;;15.48;6.10;;;;;;;;;;5057238;28;20551;-81
2023/04/26 07:43:16;;;;;;;17.40;6.18;;;;;;;;;;5056555;28;20209;-82
2023/04/26 07:45:42;;;;;;;10.57;5.07;;;;;;;;;;5056572;28;20195;-81
2023/04/26 07:48:08;;;;;;;11.98;7.22;;;;;;;;;;5039986;28;20271;-81
2023/04/26 07:50:35;;;;;;;12.85;6.18;;;;;;;;;;5056112;28;20701;-81
2023/04/26 07:53:01;;;;;;;11.18;5.95;;;;;;;;;;5056864;28;20266;-82
2023/04/26 07:55:27;;;;;;;13.40;5.83;;;;;;;;;;5074323;28;20208;-81
2023/04/26 07:57:54;;;;;;;11.97;5.80;;;;;;;;;;5051858;28;20460;-81
2023/04/26 08:00:21;;;;;;;15.55;6.38;;;;;;;;;;5076291;28;20409;-82
2023/04/26 08:02:47;;;;;;;10.40;5.85;;;;;;;;;;5076393;28;20663;-82
2023/04/26 08:05:14;;;;;;;10.65;4.70;;;;;;;;;;5076303;28;20267;-82
2023/04/26 08:07:40;;;;;;;11.43;4.20;;;;;;;;;;5068987;28;20181;-82
2023/04/26 08:10:07;;;;;;;8.13;4.40;;;;;;;;;;5073715;28;20242;-83
2023/04/26 08:12:33;;;;;;;13.57;4.60;;;;;;;;;;5056107;28;20184;-82
2023/04/26 08:15:03;;;;;;;5.82;4.15;;;;;;;;;;5055901;28;20510;-83
2023/04/26 08:17:30;;;;;;;11.93;4.47;;;;;;;;;;5057012;28;20521;-82
2023/04/26 08:19:56;;;;;;;8.60;4.30;;;;;;;;;;5061238;28;20219;-84
2023/04/26 08:22:23;;;;;;;11.70;4.10;;;;;;;;;;5059023;28;20181;-82
2023/04/26 08:24:50;;;;;;;8.02;3.83;;;;;;;;;;5043027;28;20490;-82
2023/04/26 08:27:16;;;;;;;11.30;3.90;;;;;;;;;;5077447;28;20251;-82
2023/04/26 08:29:42;;;;;;;11.80;3.47;;;;;;;;;;5077874;28;20645;-82
2023/04/26 08:32:08;;;;;;;15.50;4.15;;;;;;;;;;5042788;28;20181;-83
2023/04/26 08:34:34;;;;;;;4.57;2.90;;;;;;;;;;5059620;28;20625;-82
2023/04/26 08:37:00;;;;;;;6.95;2.65;;;;;;;;;;5059671;28;20407;-82
2023/04/26 08:39:26;;;;;;;11.87;3.03;;;;;;;;;;5059217;28;20184;-82
2023/04/26 08:41:54;;;;;;;3.50;2.20;;;;;;;;;;5059246;28;20422;-82
2023/04/26 08:44:22;;;;;;;12.98;2.30;;;;;;;;;;5058593;28;20474;-82
2023/04/26 08:46:48;;;;;;;10.15;2.85;;;;;;;;;;5076954;28;20169;-82
2023/04/26 08:49:23;;;;;;;4.57;2.10;;;;;;;;;;5076321;28;20180;-82
2023/04/26 08:51:50;;;;;;;5.57;2.97;;;;;;;;;;5038929;28;20416;-82
2023/04/26 08:54:17;;;;;;;8.73;2.77;;;;;;;;;;5056890;28;20542;-83
2023/04/26 08:56:44;;;;;;;7.73;2.90;;;;;;;;;;5039096;28;21021;-83
2023/04/26 08:59:10;;;;;;;7.88;3.10;;;;;;;;;;5022311;28;20541;-82
2023/04/26 09:01:40;;;;;;;5.30;2.57;;;;;;;;;;5038834;28;20667;-83
2023/04/26 09:04:06;;;;;;;6.23;2.60;;;;;;;;;;5038789;28;20547;-82
2023/04/26 09:06:34;;;;;;;7.23;2.10;;;;;;;;;;5038448;28;20420;-83
2023/04/26 09:09:03;;;;;;;6.17;2.70;;;;;;;;;;5056365;28;20412;-82
2023/04/26 09:11:29;;;;;;;5.70;2.87;;;;;;;;;;5073463;28;20458;-82
2023/04/26 09:13:55;;;;;;;8.67;2.50;;;;;;;;;;5076493;28;20407;-83
2023/04/26 09:16:34;;;;;;;4.33;2.40;;;;;;;;;;5041805;28;20441;-83
2023/04/26 09:19:00;;;;;;;8.70;3.17;;;;;;;;;;5058430;28;20929;-83
2023/04/26 09:21:28;;;;;;;4.90;2.53;;;;;;;;;;5041408;28;20419;-83
2023/04/26 09:23:58;;;;;;;9.40;2.17;;;;;;;;;;5058297;28;20532;-83
2023/04/26 09:26:25;;;;;;;6.90;2.27;;;;;;;;;;5075842;28;20407;-83
2023/04/26 09:29:10;;;;;;;8.57;2.90;;;;;;;;;;5075735;28;20407;-83
2023/04/26 09:31:37;;;;;;;5.47;2.70;;;;;;;;;;5076108;28;20447;-83
2023/04/26 09:34:03;;;;;;;6.00;2.33;;;;;;;;;;5058003;28;20447;-83
2023/04/26 09:36:30;;;;;;;6.93;2.90;;;;;;;;;;5057832;28;20466;-83
2023/04/26 09:38:56;;;;;;;6.93;2.80;;;;;;;;;;5057288;28;20450;-83
2023/04/26 09:41:22;;;;;;;4.70;2.63;;;;;;;;;;5056812;28;20188;-83
2023/04/26 09:43:50;;;;;;;4.53;2.60;;;;;;;;;;5040792;28;20212;-82
2023/04/26 09:46:25;;;;;;;4.35;2.42;;;;;;;;;;5057197;28;20890;-82
2023/04/26 09:49:02;;;;;;;6.53;2.65;;;;;;;;;;5075240;28;20190;-83
2023/04/26 09:51:28;;;;;;;6.53;2.80;;;;;;;;;;5057422;28;20333;-83
2023/04/26 09:53:54;;;;;;;9.13;2.90;;;;;;;;;;5077726;28;20206;-86
2023/04/26 09:56:20;;;;;;;8.47;2.67;;;;;;;;;;5057046;28;20415;-84
2023/04/26 09:58:47;;;;;;;9.70;2.60;;;;;;;;;;5058891;28;20909;-83
2023/04/26 10:01:18;;;;;;;4.80;3.00;;;;;;;;;;5077440;28;20497;-84
2023/04/26 10:03:44;;;;;;;10.23;2.53;;;;;;;;;;5077563;28;20984;-81
2023/04/26 10:06:12;;;;;;;6.60;3.73;;;;;;;;;;5077287;28;21017;-82
2023/04/26 10:08:38;;;;;;;8.40;2.73;;;;;;;;;;5077110;28;20410;-82
2023/04/26 10:11:06;;;;;;;3.80;2.70;;;;;;;;;;5077308;28;20393;-83
2023/04/26 10:13:32;;;;;;;4.33;2.40;;;;;;;;;;5076840;28;21329;-82
2023/04/26 10:16:00;;;;;;;5.47;2.00;;;;;;;;;;5077098;28;20446;-82
2023/04/26 10:18:26;;;;;;;6.30;3.17;;;;;;;;;;5076740;28;20393;-81
2023/04/26 10:20:53;;;;;;;5.80;2.73;;;;;;;;;;5095516;28;20775;-81
2023/04/26 10:23:20;;;;;;;5.57;2.23;;;;;;;;;;5076375;28;20515;-84
2023/04/26 10:25:47;;;;;;;7.07;3.27;;;;;;;;;;5076623;28;20411;-84
2023/04/26 10:28:13;;;;;;;8.17;3.23;;;;;;;;;;5094666;28;20373;-83
2023/04/26 10:30:58;;;;;;;6.10;2.87;;;;;;;;;;5076973;28;20409;-81
2023/04/26 10:33:25;;;;;;;6.40;2.50;;;;;;;;;;5076606;28;20436;-84
2023/04/26 10:36:00;;;;;;;7.07;3.23;;;;;;;;;;5076616;28;20410;-83
2023/04/26 10:38:26;;;;;;;5.37;2.63;;;;;;;;;;5076215;28;20425;-83
2023/04/26 10:40:52;;;;;;;6.83;2.40;;;;;;;;;;5076118;28;20418;-83
2023/04/26 10:43:18;;;;;;;6.07;2.57;;;;;;;;;;5076416;28;20503;-84
2023/04/26 10:45:47;;;;;;;5.33;2.93;;;;;;;;;;5091738;28;20461;-84
2023/04/26 10:48:22;;;;;;;4.33;2.50;;;;;;;;;;5039672;28;20464;-84
2023/04/26 10:51:00;;;;;;;4.97;2.50;;;;;;;;;;5073822;28;20462;-85
2023/04/26 10:53:34;;;;;;;4.07;2.20;;;;;;;;;;5061648;28;21943;-85
2023/04/26 10:56:00;;;;;;;4.37;2.20;;;;;;;;;;5056041;28;20784;-85
2023/04/26 10:58:30;;;;;;;3.00;1.83;;;;;;;;;;5060854;28;20784;-84
2023/04/26 11:01:07;;;;;;;8.40;2.10;;;;;;;;;;5082712;28;20395;-85
2023/04/26 11:03:33;;;;;;;4.73;2.60;;;;;;;;;;5064475;28;20961;-84
2023/04/26 11:05:59;;;;;;;3.63;2.27;;;;;;;;;;5073212;28;20422;-84
2023/04/26 11:08:30;;;;;;;4.17;2.17;;;;;;;;;;5073156;28;20395;-84
2023/04/26 11:11:02;;;;;;;4.03;2.27;;;;;;;;;;5056016;28;20418;-84
2023/04/26 11:13:39;;;;;;;4.00;2.10;;;;;;;;;;5073688;28;20443;-84
2023/04/26 11:16:09;;;;;;;5.83;1.70;;;;;;;;;;5055840;28;20551;-84
2023/04/26 11:18:36;;;;;;;5.70;2.30;;;;;;;;;;5055255;28;20422;-84
2023/04/26 11:21:04;;;;;;;2.50;2.03;;;;;;;;;;5073726;28;20403;-84
2023/04/26 11:23:30;;;;;;;4.53;1.93;;;;;;;;;;5055423;28;20470;-84
2023/04/26 11:25:57;;;;;;;3.80;2.17;;;;;;;;;;5055791;28;20498;-84
2023/04/26 11:28:23;;;;;;;7.67;2.50;;;;;;;;;;5055284;28;20434;-85
2023/04/26 11:30:50;;;;;;;3.67;2.60;;;;;;;;;;5056200;28;20423;-84
2023/04/26 11:33:18;;;;;;;9.50;2.70;;;;;;;;;;5038915;28;20946;-84
2023/04/26 11:35:45;;;;;;;3.40;2.17;;;;;;;;;;5073464;28;20820;-84
2023/04/26 11:38:11;;;;;;;4.10;1.80;;;;;;;;;;5054981;28;20498;-84
2023/04/26 11:40:37;;;;;;;4.93;1.93;;;;;;;;;;5072862;28;21271;-83
2023/04/26 11:43:04;;;;;;;8.13;2.37;;;;;;;;;;5055340;28;20505;-84
2023/04/26 11:45:35;;;;;;;7.67;2.20;;;;;;;;;;5055603;28;20754;-84
2023/04/26 11:48:01;;;;;;;4.63;2.03;;;;;;;;;;5055420;28;20726;-84
2023/04/26 11:50:28;;;;;;;4.77;2.13;;;;;;;;;;5073029;28;20462;-84
2023/04/26 11:52:55;;;;;;;3.33;1.93;;;;;;;;;;5056973;28;20415;-85
2023/04/26 11:55:27;;;;;;;4.03;2.07;;;;;;;;;;5060722;28;20850;-90
2023/04/26 11:57:53;;;;;;;2.97;1.60;;;;;;;;;;5067294;28;20765;-90
2023/04/26 12:00:20;;;;;;;4.83;2.33;;;;;;;;;;5047513;28;20374;-89
2023/04/26 12:02:49;;;;;;;6.23;2.30;;;;;;;;;;5080958;28;20881;-89
2023/04/26 12:05:24;;;;;;;5.30;2.27;;;;;;;;;;5061820;28;20397;-89
2023/04/26 12:07:55;;;;;;;4.90;1.73;;;;;;;;;;5064601;28;20389;-90
2023/04/26 12:10:24;;;;;;;6.67;2.20;;;;;;;;;;5062248;28;20426;-90
2023/04/26 12:12:51;;;;;;;2.80;1.80;;;;;;;;;;5061242;28;20422;-90
2023/04/26 12:15:17;;;;;;;2.80;1.80;;;;;;;;;;5078391;28;20389;-88
2023/04/26 12:17:53;;;;;;;4.67;2.10;;;;;;;;;;5076929;28;20409;-88
2023/04/26 12:20:25;;;;;;;7.10;2.50;;;;;;;;;;5058862;28;20393;-91
2023/04/26 12:23:17;;;;;;;4.67;1.97;;;;;;;;;;5059930;28;20414;-89
2023/04/26 12:25:54;;;;;;;2.90;1.70;;;;;;;;;;5056925;28;20397;-90
2023/04/26 12:28:21;;;;;;;4.73;2.00;;;;;;;;;;5044014;28;20451;-91
2023/04/26 12:30:47;;;;;;;10.60;2.47;;;;;;;;;;5046038;28;20458;-91
2023/04/26 12:33:13;;;;;;;8.63;2.43;;;;;;;;;;5059836;28;20431;-90
2023/04/26 12:35:39;;;;;;;6.43;2.47;;;;;;;;;;5043729;28;20461;-90
2023/04/26 12:38:05;;;;;;;5.10;2.20;;;;;;;;;;5044235;28;20430;-88
2023/04/26 12:40:31;;;;;;;7.50;2.90;;;;;;;;;;5043149;28;20430;-89
2023/04/26 12:42:57;;;;;;;6.80;2.20;;;;;;;;;;5077151;28;20786;-90
2023/04/26 12:45:24;;;;;;;4.67;2.33;;;;;;;;;;5059259;28;20542;-91
2023/04/26 12:47:50;;;;;;;3.63;1.90;;;;;;;;;;5042411;28;20462;-89
2023/04/26 12:50:18;;;;;;;5.53;2.07;;;;;;;;;;5059018;28;20473;-90
2023/04/26 12:52:44;;;;;;;5.27;2.53;;;;;;;;;;5042258;28;20427;-90
2023/04/26 12:55:11;;;;;;;10.03;2.83;;;;;;;;;;5077032;28;20381;-90
2023/04/26 12:57:38;;;;;;;3.93;2.30;;;;;;;;;;5059499;28;20378;-90
2023/04/26 13:00:05;;;;;;;6.77;2.50;;;;;;;;;;5059191;28;20484;-89
2023/04/26 13:02:32;;;;;;;4.43;2.10;;;;;;;;;;5058226;28;20409;-88
2023/04/26 13:04:59;;;;;;;5.20;2.80;;;;;;;;;;5041722;28;20461;-90
2023/04/26 13:07:25;;;;;;;2.80;1.90;;;;;;;;;;5059007;28;20484;-90
2023/04/26 13:09:51;;;;;;;3.67;1.93;;;;;;;;;;5042435;28;20451;-82
2023/04/26 13:12:17;;;;;;;2.40;1.77;;;;;;;;;;5059150;28;20929;-89
2023/04/26 13:14:43;;;;;;;6.27;2.27;;;;;;;;;;5058472;28;20502;-89
2023/04/26 13:17:09;;;;;;;4.50;1.70;;;;;;;;;;5058610;28;20551;-89
2023/04/26 13:19:35;;;;;;;3.70;1.77;;;;;;;;;;5059252;28;20394;-89
2023/04/26 13:22:03;;;;;;;4.90;1.90;;;;;;;;;;5058935;28;20434;-90
2023/04/26 13:24:29;;;;;;;2.63;2.03;;;;;;;;;;5059010;28;21035;-90
2023/04/26 13:26:56;;;;;;;5.10;2.20;;;;;;;;;;5059015;28;20507;-89
2023/04/26 13:29:22;;;;;;;4.40;2.60;;;;;;;;;;5059181;28;20921;-90
2023/04/26 13:31:48;;;;;;;5.10;1.80;;;;;;;;;;5060156;28;20423;-90
2023/04/26 13:34:14;;;;;;;4.20;2.40;;;;;;;;;;5043371;28;20422;-90
2023/04/26 13:36:41;;;;;;;2.57;2.30;;;;;;;;;;5042821;28;20398;-89
2023/04/26 13:39:07;;;;;;;5.70;2.83;;;;;;;;;;5042574;28;20423;-89
2023/04/26 13:41:34;;;;;;;5.33;2.40;;;;;;;;;;5060126;28;20432;-90
2023/04/26 13:44:04;;;;;;;6.50;2.70;;;;;;;;;;5058476;28;20471;-90
2023/04/26 13:46:30;;;;;;;9.13;2.37;;;;;;;;;;5058494;28;20767;-90
2023/04/26 13:48:56;;;;;;;5.07;2.07;;;;;;;;;;5059072;28;20402;-90
2023/04/26 13:51:28;;;;;;;6.30;2.53;;;;;;;;;;5039957;28;20407;-91
2023/04/26 13:53:54;;;;;;;6.63;2.40;;;;;;;;;;5040460;28;20427;-89
2023/04/26 13:56:20;;;;;;;3.13;2.50;;;;;;;;;;5056675;28;20458;-91
2023/04/26 13:58:46;;;;;;;6.37;2.70;;;;;;;;;;5056547;28;20544;-81
2023/04/26 14:01:12;;;;;;;7.13;2.80;;;;;;;;;;5037360;28;20391;-81
2023/04/26 14:03:39;;;;;;;4.60;2.53;;;;;;;;;;5036808;28;20478;-81
2023/04/26 14:06:05;;;;;;;5.80;2.60;;;;;;;;;;5051345;28;20443;-87
2023/04/26 14:08:31;;;;;;;5.93;2.40;;;;;;;;;;5036400;28;20418;-88
2023/04/26 14:10:57;;;;;;;5.77;3.53;;;;;;;;;;5056333;28;20407;-79
2023/04/26 14:13:23;;;;;;;10.20;2.97;;;;;;;;;;5020669;28;20410;-79
2023/04/26 14:15:49;;;;;;;6.40;2.20;;;;;;;;;;5018324;28;20763;-79
2023/04/26 14:18:16;;;;;;;4.00;2.13;;;;;;;;;;5036132;28;20393;-79
2023/04/26 14:20:42;;;;;;;6.00;2.80;;;;;;;;;;5053932;28;20782;-79
2023/04/26 14:23:08;;;;;;;3.37;2.60;;;;;;;;;;5054628;28;20537;-79
2023/04/26 14:25:34;;;;;;;5.50;2.30;;;;;;;;;;5054584;28;20435;-79
2023/04/26 14:28:00;;;;;;;11.03;2.67;;;;;;;;;;5054731;28;20408;-79
2023/04/26 14:30:26;;;;;;;4.93;2.20;;;;;;;;;;5036530;28;20387;-80
2023/04/26 14:32:52;;;;;;;7.33;2.90;;;;;;;;;;5053989;28;20785;-80
2023/04/26 14:35:18;;;;;;;6.83;2.90;;;;;;;;;;5053971;28;20382;-80